Time;durP1;ratioP1;P1;durP2;ratioP2;P2;SDS_P1;SDS_P2;PMS_P1;PMS_P2;Temp;Humidity;BMP_temperature;BMP_pressure;BME280_temperature;BME280_humidity;BME280_pressure;Samples;Min_cycle;Max_cycle;Signal;HPM_P1;HPM_P2
2021/12/06 00:11:39;;;;;;;19.57;7.57;;;;;;;1.76;100.00;100439.63;31291707;28;20140;-76
2021/12/06 00:26:41;;;;;;;16.00;7.47;;;;;;;1.67;100.00;100432.56;31314105;28;20390;-74
2021/12/06 00:41:43;;;;;;;19.90;8.63;;;;;;;1.59;100.00;100436.22;31280500;28;20053;-73
2021/12/06 00:56:45;;;;;;;17.77;8.10;;;;;;;1.68;100.00;100425.31;31279335;28;20053;-73
2021/12/06 01:11:47;;;;;;;19.83;7.77;;;;;;;1.60;100.00;100424.41;31350523;28;20052;-74
2021/12/06 01:42:04;;;;;;;18.47;7.73;;;;;;;1.67;100.00;100416.50;31319884;28;20532;-72
2021/12/06 01:57:06;;;;;;;18.17;8.70;;;;;;;1.55;100.00;100411.28;31301936;28;20491;-73
2021/12/06 02:12:09;;;;;;;19.73;7.40;;;;;;;1.43;100.00;100411.38;31340394;28;20048;-72
2021/12/06 02:27:12;;;;;;;23.70;8.13;;;;;;;1.37;100.00;100402.09;31344432;28;20145;-73
2021/12/06 02:42:16;;;;;;;15.63;7.03;;;;;;;1.38;100.00;100441.09;31336646;28;20063;-73
2021/12/06 02:57:21;;;;;;;19.60;8.63;;;;;;;1.43;100.00;100438.13;31327246;28;20055;-74
2021/12/06 03:12:26;;;;;;;22.57;7.97;;;;;;;1.56;100.00;100452.19;31305309;28;20053;-74
2021/12/06 03:27:28;;;;;;;17.43;6.33;;;;;;;1.52;100.00;100444.09;31320345;28;20491;-74
2021/12/06 03:42:30;;;;;;;18.67;8.40;;;;;;;1.49;100.00;100438.66;31328434;28;20053;-74
2021/12/06 03:57:32;;;;;;;24.80;7.70;;;;;;;1.45;100.00;100462.66;31300788;28;20033;-73
2021/12/06 04:12:34;;;;;;;17.70;7.83;;;;;;;1.49;100.00;100455.47;31315664;28;20144;-73
2021/12/06 04:27:36;;;;;;;19.90;7.33;;;;;;;1.42;100.00;100458.00;31311095;28;20051;-74
2021/12/06 04:42:39;;;;;;;15.30;7.53;;;;;;;1.32;100.00;100469.22;31315561;28;20046;-74
2021/12/06 04:57:44;;;;;;;19.03;7.53;;;;;;;1.26;100.00;100454.56;31300907;28;20056;-73
2021/12/06 05:12:48;;;;;;;17.10;8.00;;;;;;;1.19;100.00;100481.91;31312022;28;20132;-75
2021/12/06 05:27:51;;;;;;;16.97;6.97;;;;;;;1.03;100.00;100467.78;31285393;28;20068;-73
2021/12/06 05:42:53;;;;;;;17.87;8.47;;;;;;;0.98;100.00;100471.47;31301171;28;20057;-73
2021/12/06 05:58:00;;;;;;;21.77;9.90;;;;;;;1.08;100.00;100466.75;31293129;28;20541;-74
2021/12/06 06:13:03;;;;;;;16.45;7.78;;;;;;;1.14;100.00;100473.38;31328945;28;20049;-75
2021/12/06 06:28:06;;;;;;;18.47;8.10;;;;;;;1.16;100.00;100492.53;31344563;28;20048;-74
2021/12/06 06:43:08;;;;;;;16.97;7.57;;;;;;;1.26;100.00;100503.47;31329863;28;20052;-76
2021/12/06 06:58:10;;;;;;;20.43;8.63;;;;;;;1.37;100.00;100503.75;31309125;28;20517;-73
2021/12/06 07:13:12;;;;;;;18.10;7.97;;;;;;;1.53;100.00;100531.25;31294467;28;20132;-72
2021/12/06 07:28:14;;;;;;;21.00;8.90;;;;;;;1.71;100.00;100523.63;31323740;28;20586;-73
2021/12/06 07:43:19;;;;;;;16.70;8.40;;;;;;;1.90;100.00;100526.38;31306567;28;20127;-72
2021/12/06 07:58:22;;;;;;;13.83;7.03;;;;;;;2.08;100.00;100529.44;31330421;28;20053;-73
2021/12/06 08:13:27;;;;;;;21.00;8.03;;;;;;;2.44;100.00;100524.81;31301149;28;20057;-74
2021/12/06 08:28:31;;;;;;;18.53;8.20;;;;;;;2.91;100.00;100528.00;31318738;28;20495;-75
2021/12/06 08:43:34;;;;;;;17.10;7.97;;;;;;;2.97;100.00;100499.00;31318184;28;20048;-73
2021/12/06 08:58:36;;;;;;;20.47;8.40;;;;;;;3.17;100.00;100467.53;31297356;28;20422;-72
2021/12/06 09:13:40;;;;;;;22.27;8.40;;;;;;;3.51;100.00;100455.78;31331860;28;20506;-74
2021/12/06 09:28:44;;;;;;;21.10;6.97;;;;;;;3.55;100.00;100443.16;31323149;28;20057;-75
2021/12/06 09:43:47;;;;;;;18.20;7.50;;;;;;;3.75;100.00;100417.78;31337286;28;20053;-73
2021/12/06 09:58:50;;;;;;;16.13;7.03;;;;;;;3.89;100.00;100416.38;31296255;28;20149;-73
2021/12/06 10:13:54;;;;;;;17.97;7.57;;;;;;;4.06;100.00;100419.28;31317294;28;20055;-73
2021/12/06 10:29:04;;;;;;;20.63;7.37;;;;;;;4.09;100.00;100412.41;31321109;28;20092;-75
2021/12/06 10:44:12;;;;;;;21.17;7.90;;;;;;;4.30;100.00;100406.50;31366590;28;20140;-77
2021/12/06 10:59:28;;;;;;;18.10;7.30;;;;;;;4.45;100.00;100413.56;31333111;28;20053;-77
2021/12/06 11:14:39;;;;;;;20.60;8.47;;;;;;;4.43;100.00;100402.41;31378493;28;20064;-77
2021/12/06 11:29:47;;;;;;;22.43;7.50;;;;;;;4.47;100.00;100397.09;31423963;28;20053;-78
2021/12/06 11:44:52;;;;;;;23.10;8.37;;;;;;;4.35;100.00;100385.44;31308953;28;20053;-76
2021/12/06 12:00:16;;;;;;;19.03;9.00;;;;;;;4.36;100.00;100378.16;31320729;28;20084;-77
2021/12/06 12:15:18;;;;;;;23.07;9.17;;;;;;;4.54;100.00;100391.75;31327528;28;20080;-78
2021/12/06 12:30:21;;;;;;;26.00;8.80;;;;;;;4.64;100.00;100374.94;31334108;28;20080;-79
2021/12/06 12:45:23;;;;;;;27.33;10.47;;;;;;;4.70;100.00;100368.09;31332487;28;20053;-78
2021/12/06 13:00:25;;;;;;;26.63;9.10;;;;;;;4.65;100.00;100355.00;31345148;28;20052;-79
2021/12/06 13:16:11;;;;;;;35.63;12.33;;;;;;;4.70;100.00;100373.47;31343486;28;20103;-76
2021/12/06 13:31:25;;;;;;;26.53;10.00;;;;;;;4.92;100.00;100352.91;31348711;28;20057;-78
2021/12/06 13:46:41;;;;;;;21.00;9.80;;;;;;;5.21;100.00;100372.69;31357679;28;20406;-77
2021/12/06 14:01:46;;;;;;;23.77;9.73;;;;;;;5.45;100.00;100369.34;31349714;28;20135;-77
2021/12/06 14:16:49;;;;;;;19.50;8.97;;;;;;;5.61;100.00;100372.53;31303463;28;20391;-80
2021/12/06 14:31:54;;;;;;;18.10;8.27;;;;;;;5.71;100.00;100366.41;31300714;28;20049;-81
2021/12/06 14:46:56;;;;;;;27.40;10.47;;;;;;;5.74;100.00;100351.41;31303980;28;20131;-73
2021/12/06 15:02:15;;;;;;;21.10;8.67;;;;;;;5.73;100.00;100339.88;31290446;28;20072;-81
2021/12/06 15:17:18;;;;;;;24.00;9.73;;;;;;;5.76;100.00;100359.88;31341690;28;20223;-86
2021/12/06 15:32:20;;;;;;;28.80;10.40;;;;;;;5.76;100.00;100362.59;31308411;28;20057;-81
2021/12/06 15:47:29;;;;;;;19.80;8.90;;;;;;;5.77;100.00;100364.91;31331321;28;20049;-84
2021/12/06 16:02:33;;;;;;;20.50;8.27;;;;;;;5.78;100.00;100344.91;31289591;28;20414;-74
2021/12/06 16:17:36;;;;;;;25.20;10.33;;;;;;;5.79;100.00;100341.06;31329105;28;20633;-74
2021/12/06 16:32:38;;;;;;;24.63;8.77;;;;;;;5.83;100.00;100341.84;31330645;28;20085;-73
2021/12/06 16:47:48;;;;;;;21.70;8.57;;;;;;;5.85;100.00;100338.00;31332016;28;20487;-73
2021/12/06 17:03:16;;;;;;;20.30;9.37;;;;;;;5.93;100.00;100366.53;31281090;28;20136;-83
2021/12/06 17:18:23;;;;;;;22.30;9.47;;;;;;;6.07;100.00;100358.50;31332624;28;20438;-88
2021/12/06 17:33:28;;;;;;;24.40;9.63;;;;;;;6.12;100.00;100353.50;31290543;28;20062;-92
2021/12/06 17:48:31;;;;;;;18.93;7.80;;;;;;;6.20;100.00;100332.72;31329651;28;20050;-76
2021/12/06 18:03:36;;;;;;;27.40;10.30;;;;;;;6.23;100.00;100320.41;31369624;28;20055;-76
2021/12/06 18:18:40;;;;;;;20.03;8.70;;;;;;;6.29;100.00;100322.34;31351614;28;20029;-77
2021/12/06 18:33:43;;;;;;;24.97;9.67;;;;;;;6.36;100.00;100333.13;31421898;28;20096;-76
2021/12/06 18:48:49;;;;;;;17.97;8.23;;;;;;;6.34;100.00;100331.97;31319907;28;20104;-80
2021/12/06 19:03:53;;;;;;;20.83;9.40;;;;;;;6.34;100.00;100321.97;31333182;28;20045;-75
2021/12/06 19:18:55;;;;;;;19.97;8.20;;;;;;;6.34;100.00;100308.47;31318952;28;20087;-76
2021/12/06 19:33:57;;;;;;;21.03;9.23;;;;;;;6.44;100.00;100304.22;31333908;28;20148;-77
2021/12/06 19:48:59;;;;;;;23.33;9.40;;;;;;;6.52;100.00;100302.31;31302197;28;20070;-76
2021/12/06 20:04:03;;;;;;;21.07;9.57;;;;;;;6.65;100.00;100308.84;31402659;28;20049;-74
2021/12/06 20:19:05;;;;;;;24.40;10.20;;;;;;;6.72;100.00;100308.84;31426649;28;20132;-75
2021/12/06 20:34:07;;;;;;;29.27;11.60;;;;;;;6.77;100.00;100300.38;31354985;28;20068;-76
2021/12/06 20:49:09;;;;;;;26.47;10.67;;;;;;;6.81;100.00;100301.91;31322066;28;20399;-79
2021/12/06 21:04:13;;;;;;;29.47;11.33;;;;;;;6.87;100.00;100282.63;31311260;28;20053;-85
2021/12/06 21:19:16;;;;;;;28.37;10.97;;;;;;;6.87;100.00;100278.00;31333729;28;20055;-82
2021/12/06 21:34:19;;;;;;;33.10;13.03;;;;;;;6.91;100.00;100256.41;31337505;28;20168;-80
2021/12/06 21:49:21;;;;;;;28.73;12.20;;;;;;;6.96;100.00;100247.91;31303019;28;20046;-81
2021/12/06 22:04:23;;;;;;;27.87;10.20;;;;;;;6.98;100.00;100249.06;31337574;28;20220;-81
2021/12/06 22:19:29;;;;;;;37.70;11.27;;;;;;;7.03;100.00;100227.06;31329348;28;20077;-83
2021/12/06 22:34:31;;;;;;;30.07;11.97;;;;;;;7.08;100.00;100209.72;31307193;28;20064;-83
2021/12/06 22:49:33;;;;;;;44.50;14.17;;;;;;;7.10;100.00;100191.94;31309849;28;20081;-83
2021/12/06 23:04:36;;;;;;;41.87;13.17;;;;;;;7.16;100.00;100211.19;31333395;28;20081;-82
2021/12/06 23:19:39;;;;;;;43.40;12.03;;;;;;;7.21;100.00;100193.84;31327197;28;20123;-83
2021/12/06 23:34:49;;;;;;;28.87;10.47;;;;;;;7.23;100.00;100213.09;31308400;28;20084;-81
2021/12/06 23:49:51;;;;;;;41.30;11.03;;;;;;;7.24;100.00;100209.25;31312675;28;20048;-84
